createdAt,value
2023-05-19T00:02:06.177Z,3.83
2023-05-19T00:05:10.625Z,3.47
2023-05-19T00:08:16.368Z,3.58
2023-05-19T00:11:19.777Z,3.70
2023-05-19T00:14:23.223Z,3.70
2023-05-19T00:17:26.780Z,3.30
2023-05-19T00:20:29.997Z,3.75
2023-05-19T00:23:33.425Z,2.70
2023-05-19T00:26:36.270Z,3.03
2023-05-19T00:29:40.288Z,3.05
2023-05-19T00:32:43.173Z,3.40
2023-05-19T00:35:46.255Z,3.37
2023-05-19T00:38:49.048Z,3.08
2023-05-19T00:41:52.146Z,3.60
2023-05-19T00:44:54.939Z,3.33
2023-05-19T00:47:58.729Z,3.05
2023-05-19T00:51:04.932Z,3.08
2023-05-19T00:54:09.701Z,3.17
2023-05-19T01:00:18.506Z,3.62
2023-05-19T01:03:23.302Z,3.20
2023-05-19T01:06:27.948Z,3.37
2023-05-19T01:09:32.368Z,3.78
2023-05-19T01:12:36.814Z,3.97
2023-05-19T01:15:52.305Z,3.55
2023-05-19T01:19:25.731Z,3.40
2023-05-19T01:22:55.585Z,3.35
2023-05-19T01:26:16.906Z,3.30
2023-05-19T01:29:55.887Z,3.72
2023-05-19T01:33:02.337Z,3.80
2023-05-19T01:36:06.277Z,4.20
2023-05-19T01:39:09.498Z,4.90
2023-05-19T01:42:13.305Z,3.53
2023-05-19T01:45:17.173Z,3.87
2023-05-19T01:48:20.117Z,4.00
2023-05-19T01:51:24.126Z,4.35
2023-05-19T01:54:26.946Z,3.75
2023-05-19T01:57:52.249Z,3.85
2023-05-19T02:01:16.558Z,3.72
2023-05-19T02:04:32.533Z,4.00
2023-05-19T02:07:44.415Z,3.83
2023-05-19T02:11:01.237Z,4.18
2023-05-19T02:14:10.507Z,4.07
2023-05-19T02:17:15.959Z,4.25
2023-05-19T02:23:22.403Z,3.90
2023-05-19T02:26:25.295Z,4.47
2023-05-19T02:29:29.543Z,4.33
2023-05-19T02:32:33.309Z,4.37
2023-05-19T02:35:36.458Z,4.78
2023-05-19T02:38:39.247Z,4.20
2023-05-19T02:41:42.354Z,4.50
2023-05-19T02:44:46.296Z,4.55
2023-05-19T02:47:49.442Z,4.47
2023-05-19T02:50:52.245Z,4.40
2023-05-19T02:53:55.404Z,4.90
2023-05-19T02:56:58.385Z,4.60
2023-05-19T03:00:01.835Z,5.18
2023-05-19T03:03:04.809Z,5.10
2023-05-19T03:06:09.698Z,4.62
2023-05-19T03:09:13.940Z,4.43
2023-05-19T03:12:17.182Z,5.40
2023-05-19T03:15:23.009Z,5.28
2023-05-19T03:18:26.868Z,4.65
2023-05-19T03:21:30.529Z,4.72
2023-05-19T03:24:33.647Z,4.55
2023-05-19T03:27:38.140Z,5.10
2023-05-19T03:30:41.940Z,5.35
2023-05-19T03:33:45.353Z,5.50
2023-05-19T03:36:50.412Z,6.15
2023-05-19T03:39:53.325Z,6.10
2023-05-19T03:42:56.909Z,6.05
2023-05-19T03:45:59.962Z,5.87
2023-05-19T03:49:05.714Z,6.62
2023-05-19T03:52:10.005Z,6.35
2023-05-19T03:55:14.841Z,6.53
2023-05-19T03:58:17.822Z,6.20
2023-05-19T04:01:20.996Z,6.10
2023-05-19T04:04:24.095Z,6.20
2023-05-19T04:07:27.273Z,6.37
2023-05-19T04:10:30.705Z,6.65
2023-05-19T04:13:34.759Z,6.20
2023-05-19T04:16:37.968Z,6.35
2023-05-19T04:19:41.165Z,5.57
2023-05-19T04:22:44.358Z,9.00
2023-05-19T04:25:48.855Z,8.90
2023-05-19T04:28:52.809Z,11.80
2023-05-19T04:31:57.322Z,8.70
2023-05-19T04:35:00.868Z,8.38
2023-05-19T04:38:04.324Z,9.35
2023-05-19T04:41:11.101Z,9.60
2023-05-19T04:44:18.486Z,10.48
2023-05-19T04:47:22.534Z,11.75
2023-05-19T04:50:25.626Z,11.85
2023-05-19T04:53:29.542Z,10.90
2023-05-19T04:56:32.532Z,9.80
2023-05-19T04:59:37.353Z,9.60
2023-05-19T05:02:43.726Z,11.85
2023-05-19T05:05:47.943Z,11.55
2023-05-19T05:08:53.040Z,11.52
2023-05-19T05:11:56.909Z,9.38
2023-05-19T05:15:00.724Z,9.70
2023-05-19T05:18:05.103Z,9.52
2023-05-19T05:21:08.512Z,10.07
2023-05-19T05:24:12.314Z,9.02
2023-05-19T05:27:16.624Z,9.32
2023-05-19T05:30:19.720Z,9.65
2023-05-19T05:33:24.965Z,9.13
2023-05-19T05:36:28.380Z,9.20
2023-05-19T05:39:31.986Z,10.02
2023-05-19T05:42:35.793Z,10.27
2023-05-19T05:45:38.752Z,9.73
2023-05-19T05:48:42.888Z,11.10
2023-05-19T05:52:01.529Z,8.97
2023-05-19T05:55:09.595Z,10.85
2023-05-19T05:58:12.547Z,10.98
2023-05-19T06:01:17.010Z,10.25
2023-05-19T06:04:21.322Z,9.02
2023-05-19T06:07:24.597Z,9.07
2023-05-19T06:10:31.292Z,9.27
2023-05-19T06:13:38.596Z,9.13
2023-05-19T06:16:42.910Z,9.38
2023-05-19T06:19:47.033Z,9.25
2023-05-19T06:22:50.984Z,8.70
2023-05-19T06:25:54.747Z,8.75
2023-05-19T06:28:57.873Z,8.32
2023-05-19T06:32:01.314Z,8.52
2023-05-19T06:35:05.657Z,9.30
2023-05-19T06:38:08.488Z,9.65
2023-05-19T06:41:11.525Z,8.43
2023-05-19T06:44:15.512Z,8.00
2023-05-19T06:47:22.995Z,7.80
2023-05-19T06:50:27.957Z,8.68
2023-05-19T06:53:31.476Z,8.57
2023-05-19T06:56:35.434Z,8.57
2023-05-19T06:59:41.034Z,8.75
2023-05-19T07:02:44.366Z,9.18
2023-05-19T07:05:47.721Z,8.40
2023-05-19T07:08:51.246Z,8.50
2023-05-19T07:11:56.500Z,9.75
2023-05-19T07:14:59.767Z,8.38
2023-05-19T07:18:03.799Z,8.20
2023-05-19T07:21:07.650Z,7.82
2023-05-19T07:24:11.388Z,8.07
2023-05-19T07:27:14.350Z,9.13
2023-05-19T07:30:17.587Z,8.57
2023-05-19T07:33:20.663Z,8.43
2023-05-19T07:36:24.007Z,8.27
2023-05-19T07:39:30.212Z,8.52
2023-05-19T07:42:33.701Z,7.55
2023-05-19T07:45:36.701Z,7.57
2023-05-19T07:48:40.482Z,7.57
2023-05-19T07:51:43.628Z,7.37
2023-05-19T07:54:46.996Z,7.30
2023-05-19T07:57:51.061Z,6.37
2023-05-19T08:00:57.954Z,8.35
2023-05-19T08:04:01.441Z,7.57
2023-05-19T08:07:04.680Z,7.00
2023-05-19T08:10:09.141Z,7.20
2023-05-19T08:13:12.236Z,5.87
2023-05-19T08:16:18.907Z,6.55
2023-05-19T08:19:21.984Z,6.62
2023-05-19T08:22:26.150Z,6.62
2023-05-19T08:25:29.217Z,6.75
2023-05-19T08:28:32.524Z,6.45
2023-05-19T08:31:35.523Z,6.05
2023-05-19T08:34:38.832Z,5.50
2023-05-19T08:37:43.301Z,5.50
2023-05-19T08:40:48.855Z,5.80
2023-05-19T08:43:51.825Z,4.82
2023-05-19T08:46:57.756Z,5.20
2023-05-19T08:50:11.148Z,4.90
2023-05-19T08:53:34.035Z,5.32
2023-05-19T08:56:37.988Z,4.65
2023-05-19T08:59:41.678Z,4.80
2023-05-19T09:02:55.046Z,4.62
2023-05-19T09:06:07.834Z,4.60
2023-05-19T09:09:11.481Z,4.70
2023-05-19T09:12:16.101Z,4.23
2023-05-19T09:15:19.527Z,4.15
2023-05-19T09:18:25.820Z,3.67
2023-05-19T09:21:33.346Z,4.00
2023-05-19T09:24:38.619Z,4.00
2023-05-19T09:27:41.597Z,4.43
2023-05-19T09:30:46.306Z,3.62
2023-05-19T09:33:53.612Z,3.40
2023-05-19T09:37:01.117Z,3.47
2023-05-19T09:40:06.802Z,3.00
2023-05-19T09:43:10.254Z,3.15
2023-05-19T09:46:14.926Z,3.07
2023-05-19T09:49:21.137Z,3.20
2023-05-19T09:52:26.033Z,3.30
2023-05-19T09:55:31.000Z,3.08
2023-05-19T09:58:35.589Z,2.65
2023-05-19T10:01:41.275Z,2.60
2023-05-19T10:04:45.207Z,2.65
2023-05-19T10:07:51.643Z,2.33
2023-05-19T10:10:55.264Z,3.00
2023-05-19T10:13:58.384Z,2.60
2023-05-19T10:17:01.719Z,2.90
2023-05-19T10:20:07.201Z,2.90
2023-05-19T10:23:10.500Z,3.12
2023-05-19T10:26:13.809Z,3.00
2023-05-19T10:29:21.014Z,3.08
2023-05-19T10:32:28.422Z,3.28
2023-05-19T10:35:50.412Z,2.95
2023-05-19T10:39:04.757Z,2.92
2023-05-19T10:42:26.567Z,2.87
2023-05-19T10:45:31.950Z,2.28
2023-05-19T10:48:38.687Z,3.10
2023-05-19T10:51:47.261Z,3.00
2023-05-19T10:54:52.853Z,2.60
2023-05-19T10:57:58.889Z,2.42
2023-05-19T11:01:02.078Z,2.70
2023-05-19T11:04:12.542Z,2.65
2023-05-19T11:07:20.684Z,2.30
2023-05-19T11:10:25.395Z,2.78
2023-05-19T11:13:28.942Z,2.35
2023-05-19T11:16:33.431Z,2.50
2023-05-19T11:19:38.576Z,3.00
2023-05-19T11:22:41.507Z,2.40
2023-05-19T11:25:50.460Z,2.40
2023-05-19T11:28:54.807Z,2.60
2023-05-19T11:31:58.207Z,2.37
2023-05-19T11:35:02.626Z,2.30
2023-05-19T11:38:07.579Z,2.22
2023-05-19T11:41:10.587Z,2.40
2023-05-19T11:44:13.771Z,2.25
2023-05-19T11:47:17.478Z,2.20
2023-05-19T11:50:21.078Z,2.30
2023-05-19T11:53:24.152Z,2.15
2023-05-19T11:56:27.432Z,2.30
2023-05-19T11:59:33.476Z,2.72
2023-05-19T12:02:38.767Z,2.45
2023-05-19T12:05:48.062Z,2.65
2023-05-19T12:08:52.940Z,2.30
2023-05-19T12:11:56.287Z,1.80
2023-05-19T12:15:03.739Z,2.03
2023-05-19T12:18:07.484Z,2.00
2023-05-19T12:21:10.722Z,2.17
2023-05-19T12:24:14.236Z,2.47
2023-05-19T12:27:20.226Z,2.20
2023-05-19T12:30:29.071Z,2.33
2023-05-19T12:33:33.675Z,2.00
2023-05-19T12:39:42.989Z,2.10
2023-05-19T12:45:49.749Z,2.08
2023-05-19T12:48:53.469Z,2.33
2023-05-19T12:51:56.505Z,2.15
2023-05-19T12:55:01.521Z,2.10
2023-05-19T12:58:07.257Z,2.20
2023-05-19T13:01:18.092Z,2.05
2023-05-19T13:04:21.424Z,1.73
2023-05-19T13:07:24.811Z,2.47
2023-05-19T13:10:30.068Z,1.98
2023-05-19T13:13:33.729Z,2.10
2023-05-19T13:16:36.854Z,1.93
2023-05-19T13:19:40.125Z,1.87
2023-05-19T13:22:43.414Z,1.77
2023-05-19T13:25:46.661Z,1.80
2023-05-19T13:28:49.634Z,2.17
2023-05-19T13:31:53.350Z,2.10
2023-05-19T13:34:56.640Z,1.60
2023-05-19T13:38:00.051Z,1.90
2023-05-19T13:41:02.955Z,1.90
2023-05-19T13:44:06.345Z,1.90
2023-05-19T13:47:09.305Z,1.95
2023-05-19T13:50:12.684Z,1.85
2023-05-19T13:53:15.801Z,2.17
2023-05-19T13:56:19.243Z,2.00
2023-05-19T13:59:22.245Z,1.92
2023-05-19T14:02:25.559Z,2.00
2023-05-19T14:05:29.253Z,1.70
2023-05-19T14:08:32.887Z,1.90
2023-05-19T14:14:39.040Z,2.12
2023-05-19T14:17:42.387Z,1.90
2023-05-19T14:20:45.507Z,1.60
2023-05-19T14:23:48.920Z,2.05
2023-05-19T14:26:52.767Z,2.10
2023-05-19T14:29:56.069Z,2.05
2023-05-19T14:33:00.327Z,1.90
2023-05-19T14:36:06.260Z,2.03
2023-05-19T14:39:10.986Z,2.30
2023-05-19T14:42:14.204Z,1.85
2023-05-19T14:45:18.448Z,1.90
2023-05-19T14:48:21.709Z,2.00
2023-05-19T14:51:24.727Z,2.10
2023-05-19T14:54:28.331Z,1.60
2023-05-19T14:57:31.506Z,1.87
2023-05-19T15:00:35.155Z,2.28
2023-05-19T15:03:38.597Z,2.35
2023-05-19T15:06:41.982Z,2.08
2023-05-19T15:09:45.011Z,2.42
2023-05-19T15:12:48.939Z,2.10
2023-05-19T15:16:08.347Z,2.28
2023-05-19T15:19:18.784Z,2.30
2023-05-19T15:22:21.802Z,2.13
2023-05-19T15:25:24.993Z,2.08
2023-05-19T15:28:28.062Z,2.17
2023-05-19T15:31:31.366Z,2.50
2023-05-19T15:34:34.363Z,2.20
2023-05-19T15:37:38.637Z,2.30
2023-05-19T15:40:41.965Z,2.15
2023-05-19T15:43:46.602Z,2.47
2023-05-19T15:46:49.797Z,2.28
2023-05-19T15:49:53.082Z,2.03
2023-05-19T15:52:55.952Z,2.47
2023-05-19T15:55:59.147Z,2.30
2023-05-19T15:59:02.434Z,2.45
2023-05-19T16:02:05.858Z,2.22
2023-05-19T16:05:09.301Z,2.40
2023-05-19T16:08:12.226Z,2.30
2023-05-19T16:11:15.909Z,2.67
2023-05-19T16:14:18.868Z,2.30
2023-05-19T16:17:22.469Z,2.30
2023-05-19T16:20:28.255Z,2.47
2023-05-19T16:23:31.534Z,2.37
2023-05-19T16:26:34.661Z,2.50
2023-05-19T16:29:37.892Z,2.28
2023-05-19T16:32:41.017Z,2.45
2023-05-19T16:35:44.302Z,2.53
2023-05-19T16:38:48.665Z,2.10
2023-05-19T16:41:54.247Z,2.60
2023-05-19T16:44:57.104Z,2.50
2023-05-19T16:48:01.390Z,2.70
2023-05-19T16:51:04.387Z,3.53
2023-05-19T16:54:07.618Z,2.70
2023-05-19T16:57:10.670Z,2.62
2023-05-19T17:00:14.713Z,2.50
2023-05-19T17:03:17.804Z,2.50
2023-05-19T17:06:21.215Z,2.53
2023-05-19T17:09:26.261Z,2.50
2023-05-19T17:12:29.532Z,2.72
2023-05-19T17:15:34.201Z,2.80
2023-05-19T17:18:37.605Z,3.17
2023-05-19T17:21:42.029Z,2.97
2023-05-19T17:24:45.870Z,2.67
2023-05-19T17:27:48.875Z,2.78
2023-05-19T17:30:53.402Z,2.80
2023-05-19T17:33:56.478Z,3.10
2023-05-19T17:37:01.465Z,2.65
2023-05-19T17:40:04.734Z,2.80
2023-05-19T17:43:08.742Z,3.00
2023-05-19T17:46:11.930Z,2.40
2023-05-19T17:49:15.451Z,3.30
2023-05-19T17:52:19.564Z,2.60
2023-05-19T17:55:24.897Z,2.53
2023-05-19T17:58:28.906Z,2.80
2023-05-19T18:01:33.085Z,2.47
2023-05-19T18:04:36.907Z,2.65
2023-05-19T18:07:40.355Z,2.70
2023-05-19T18:10:44.069Z,3.97
2023-05-19T18:13:47.044Z,4.55
2023-05-19T18:16:50.421Z,3.25
2023-05-19T18:19:54.711Z,2.95
2023-05-19T18:22:58.833Z,3.20
2023-05-19T18:26:02.044Z,2.85
2023-05-19T18:29:05.872Z,5.50
2023-05-19T18:32:09.228Z,3.00
2023-05-19T18:35:12.507Z,3.20
2023-05-19T18:38:15.589Z,3.55
2023-05-19T18:41:18.908Z,3.20
2023-05-19T18:44:21.846Z,2.80
2023-05-19T18:47:25.121Z,2.90
2023-05-19T18:50:28.028Z,3.20
2023-05-19T18:53:34.970Z,3.10
2023-05-19T18:56:38.071Z,3.15
2023-05-19T18:59:41.527Z,3.00
2023-05-19T19:02:44.560Z,2.87
2023-05-19T19:05:57.600Z,3.03
2023-05-19T19:09:00.677Z,2.95
2023-05-19T19:12:04.162Z,3.35
2023-05-19T19:15:07.464Z,3.50
2023-05-19T19:18:11.419Z,2.80
2023-05-19T19:21:14.776Z,3.20
2023-05-19T19:24:18.047Z,2.83
2023-05-19T19:27:21.473Z,2.75
2023-05-19T19:30:25.845Z,3.40
2023-05-19T19:33:28.741Z,3.17
2023-05-19T19:36:32.135Z,3.22
2023-05-19T19:39:35.249Z,3.47
2023-05-19T19:42:38.758Z,3.10
2023-05-19T19:45:42.174Z,3.22
2023-05-19T19:48:45.666Z,3.37
2023-05-19T19:51:48.786Z,3.00
2023-05-19T19:54:52.089Z,3.28
2023-05-19T19:57:54.991Z,3.10
2023-05-19T20:01:03.179Z,3.35
2023-05-19T20:04:06.272Z,3.00
2023-05-19T20:07:09.608Z,2.97
2023-05-19T20:10:14.134Z,3.17
2023-05-19T20:13:18.990Z,3.33
2023-05-19T20:16:24.691Z,3.28
2023-05-19T20:19:27.768Z,3.37
2023-05-19T20:22:32.107Z,3.30
2023-05-19T20:25:53.693Z,4.20
2023-05-19T20:29:04.834Z,3.87
2023-05-19T20:32:07.840Z,4.25
2023-05-19T20:35:11.325Z,4.75
2023-05-19T20:38:14.625Z,4.72
2023-05-19T20:41:17.925Z,4.85
2023-05-19T20:44:20.935Z,5.05
2023-05-19T20:47:24.289Z,4.37
2023-05-19T20:50:27.300Z,4.20
2023-05-19T20:53:30.714Z,4.70
2023-05-19T20:56:34.299Z,4.30
2023-05-19T20:59:37.495Z,4.78
2023-05-19T21:02:40.518Z,4.47
2023-05-19T21:05:43.790Z,4.60
2023-05-19T21:08:46.529Z,5.05
2023-05-19T21:11:49.774Z,5.28
2023-05-19T21:14:52.727Z,5.28
2023-05-19T21:17:58.470Z,4.72
2023-05-19T21:21:04.157Z,4.30
2023-05-19T21:24:07.503Z,4.72
2023-05-19T21:27:10.390Z,4.10
2023-05-19T21:30:14.389Z,4.12
2023-05-19T21:33:17.550Z,4.87
2023-05-19T21:36:21.027Z,4.75
2023-05-19T21:39:23.966Z,4.40
2023-05-19T21:42:27.585Z,4.15
2023-05-19T21:45:30.608Z,4.18
2023-05-19T21:48:33.959Z,4.68
2023-05-19T21:51:36.925Z,4.62
2023-05-19T21:54:40.124Z,5.35
2023-05-19T21:57:43.267Z,4.95
2023-05-19T22:00:50.852Z,4.55
2023-05-19T22:03:54.252Z,4.85
2023-05-19T22:07:01.149Z,4.80
2023-05-19T22:10:04.769Z,4.47
2023-05-19T22:13:07.790Z,4.25
2023-05-19T22:16:11.337Z,4.93
2023-05-19T22:19:14.894Z,5.03
2023-05-19T22:22:18.123Z,4.80
2023-05-19T22:25:21.436Z,5.20
2023-05-19T22:28:25.364Z,4.53
2023-05-19T22:31:30.622Z,4.68
2023-05-19T22:34:33.881Z,4.28
2023-05-19T22:37:37.726Z,4.10
2023-05-19T22:40:41.025Z,4.00
2023-05-19T22:43:44.581Z,4.47
2023-05-19T22:46:47.770Z,4.12
2023-05-19T22:49:51.352Z,4.05
2023-05-19T22:52:54.569Z,5.60
2023-05-19T22:55:57.602Z,4.90
2023-05-19T22:59:01.025Z,4.57
2023-05-19T23:02:07.606Z,3.42
2023-05-19T23:05:10.882Z,3.20
2023-05-19T23:08:13.904Z,3.45
2023-05-19T23:11:17.240Z,3.50
2023-05-19T23:14:21.843Z,3.45
2023-05-19T23:20:27.453Z,2.85
2023-05-19T23:23:31.448Z,3.10
2023-05-19T23:26:34.404Z,2.97
2023-05-19T23:29:37.817Z,6.32
2023-05-19T23:32:41.236Z,6.07
2023-05-19T23:35:46.850Z,6.15
2023-05-19T23:38:50.009Z,6.25
2023-05-19T23:41:53.377Z,6.12
2023-05-19T23:44:56.376Z,7.03
2023-05-19T23:47:59.577Z,5.80
2023-05-19T23:51:02.458Z,6.37
2023-05-19T23:54:05.933Z,6.12
2023-05-19T23:57:08.913Z,6.25
